| time (UTC) | temp F | wind direction | speed MPH | gust MPH | rain 1hr in | rain 24hr in | rain mn in | humidity % | barometer mb |
| 20260906073025 | 68 | 0.0 | 9.0 | 0.00 | 0.00 | 0.00 | 86 | 1014.6 | |
| 20260906071524 | 68 | 0.0 | 8.0 | 0.00 | 0.00 | 0.00 | 86 | 1014.6 | |
| 20260906070022 | 69 | 0.0 | 13.0 | 0.00 | 0.00 | 0.00 | 86 | 1014.5 | |
| 20260906064532 | 69 | 0.0 | 10.0 | 0.00 | 0.00 | 0.00 | 87 | 1014.6 | |
| 20260906063021 | 69 | 0.0 | 10.0 | 0.00 | 0.00 | 0.00 | 88 | 1014.6 | |
| 20260906061524 | 69 | 0.0 | 6.0 | 0.00 | 0.00 | 0.00 | 88 | 1014.7 | |
| 20260906060021 | 69 | 0.0 | 9.0 | 0.00 | 0.00 | 0.00 | 87 | 1014.5 | |
| 20260906054526 | 69 | 0.0 | 9.0 | 0.00 | 0.00 | 0.00 | 88 | 1014.4 | |
| 20260906053015 | 69 | 0.0 | 12.0 | 0.00 | 0.00 | 0.00 | 88 | 1014.2 | |
| 20260906051517 | 69 | 0.0 | 9.0 | 0.00 | 0.00 | 0.00 | 88 | 1014.2 | |
| 20260906050013 | 69 | 0.0 | 6.0 | 0.00 | 0.00 | 0.00 | 88 | 1014.2 | |
| 20260906044512 | 69 | 0.0 | 6.0 | 0.00 | 0.00 | 0.00 | 89 | 1014.0 | |
| 20260906043019 | 70 | 0.0 | 6.0 | 0.00 | 0.00 | 0.00 | 88 | 1013.9 | |
| 20260906041508 | 70 | 0.0 | 9.0 | 0.00 | 0.00 | 0.00 | 88 | 1013.9 | |
| 20260906040005 | 70 | 0.0 | 10.0 | 0.00 | 0.00 | 0.00 | 88 | 1013.9 | |
| 20260906034505 | 71 | 0.0 | 10.0 | 0.00 | 0.00 | 0.00 | 89 | 1014.0 | |
| 20260906033005 | 71 | 0.0 | 9.0 | 0.00 | 0.00 | 0.00 | 88 | 1014.1 | |
| 20260906031502 | 71 | 0.0 | 10.0 | 0.00 | 0.00 | 0.00 | 89 | 1014.0 | |
| 20260906030101 | 72 | 0.0 | 10.0 | 0.00 | 0.00 | 0.00 | 88 | 1013.7 | |
| 20260906024559 | 72 | 0.0 | 13.0 | 0.00 | 0.00 | 0.00 | 88 | 1013.4 | |
| 20260906023106 | 73 | 0.0 | 13.0 | 0.00 | 0.00 | 0.00 | 88 | 1013.3 | |
| 20260906021558 | 73 | 0.0 | 16.0 | 0.00 | 0.00 | 0.00 | 88 | 1013.2 | |
| 20260906020056 | 73 | 0.0 | 12.0 | 0.00 | 0.00 | 0.00 | 88 | 1013.0 | |
| 20260906014604 | 74 | 0.0 | 14.0 | 0.00 | 0.00 | 0.00 | 88 | 1012.7 | |
| 20260906013055 | 75 | 0.0 | 16.0 | 0.00 | 0.00 | 0.00 | 88 | 1012.3 | |
| 20260906011559 | 76 | 0.0 | 13.0 | 0.00 | 0.00 | 0.00 | 88 | 1012.2 | |
| 20260906010053 | 76 | 0.0 | 14.0 | 0.00 | 0.00 | 0.00 | 88 | 1011.9 | |
| 20260906004552 | 76 | 0.0 | 11.0 | 0.00 | 0.00 | 0.00 | 88 | 1011.9 | |
| 20260906003053 | 76 | 0.0 | 11.0 | 0.00 | 0.00 | 0.00 | 87 | 1011.7 | |
| 20260906001553 | 77 | 0.0 | 13.0 | 0.00 | 0.00 | 0.00 | 85 | 1011.4 | |
| 20260906000052 | 79 | 0.0 | 9.0 | 0.00 | 0.00 | 0.00 | 82 | 1011.2 | |
| 20260905234551 | 81 | 0.0 | 14.0 | 0.00 | 0.00 | 0.00 | 80 | 1011.3 | |
| 20260905233051 | 82 | 0.0 | 9.0 | 0.00 | 0.00 | 0.00 | 80 | 1011.2 | |
| 20260905231550 | 83 | 0.0 | 4.0 | 0.00 | 0.00 | 0.00 | 79 | 1010.8 | |
| 20260905230049 | 84 | 0.0 | 5.0 | 0.00 | 0.00 | 0.00 | 78 | 1010.7 | |
| 20260905224548 | 85 | 0.0 | 6.0 | 0.00 | 0.00 | 0.00 | 76 | 1010.8 | |
| 20260905223048 | 85 | 0.0 | 6.0 | 0.00 | 0.00 | 0.00 | 76 | 1010.8 | |
| 20260905221548 | 85 | 0.0 | 5.0 | 0.00 | 0.00 | 0.00 | 77 | 1010.9 | |
| 20260905220047 | 84 | 0.0 | 10.0 | 0.00 | 0.00 | 0.00 | 78 | 1010.7 | |
| 20260905214546 | 85 | 0.0 | 10.0 | 0.00 | 0.00 | 0.00 | 75 | 1010.4 | |
| 20260905213048 | 85 | 0.0 | 11.0 | 0.00 | 0.00 | 0.00 | 75 | 1010.4 | |
| 20260905211546 | 86 | 0.0 | 10.0 | 0.00 | 0.00 | 0.00 | 75 | 1010.5 | |
| 20260905210045 | 86 | 0.0 | 14.0 | 0.00 | 0.00 | 0.00 | 76 | 1010.3 | |
| 20260905204541 | 86 | 0.0 | 13.0 | 0.00 | 0.00 | 0.00 | 77 | 1010.3 | |
| 20260905203041 | 84 | 0.0 | 10.0 | 0.00 | 0.00 | 0.00 | 79 | 1010.6 | |
| 20260905201540 | 87 | 0.0 | 8.0 | 0.00 | 0.00 | 0.00 | 73 | 1010.5 | |
| 20260905200045 | 87 | 0.0 | 9.0 | 0.00 | 0.00 | 0.00 | 74 | 1010.6 | |
| 20260905194638 | 87 | 0.0 | 8.0 | 0.00 | 0.00 | 0.00 | 72 | 1010.9 | |
| 20260905193037 | 87 | 0.0 | 9.0 | 0.00 | 0.00 | 0.00 | 70 | 1011.1 | |
| 20260905191541 | 88 | 0.0 | 10.0 | 0.00 | 0.00 | 0.00 | 68 | 1011.2 | |
| 20260905190045 | 88 | 0.0 | 13.0 | 0.00 | 0.00 | 0.00 | 69 | 1011.3 | |
| 20260905184539 | 87 | 0.0 | 14.0 | 0.00 | 0.00 | 0.00 | 69 | 1011.5 | |
| 20260905183029 | 87 | 360 | 0.0 | 13.0 | 0.00 | 0.00 | 0.00 | 68 | 1011.6 |
| 20260905181528 | 87 | 0.0 | 11.0 | 0.00 | 0.00 | 0.00 | 68 | 1011.7 | |
| 20260905180028 | 86 | 0.0 | 11.0 | 0.00 | 0.00 | 0.00 | 68 | 1011.9 | |
| 20260905174527 | 86 | 0.0 | 12.0 | 0.00 | 0.00 | 0.00 | 68 | 1012.0 | |
| 20260905173024 | 85 | 0.0 | 13.0 | 0.00 | 0.00 | 0.00 | 68 | 1012.2 | |
| 20260905171525 | 85 | 0.0 | 14.0 | 0.00 | 0.00 | 0.00 | 68 | 1012.4 | |
| 20260905170021 | 84 | 0.0 | 14.0 | 0.00 | 0.00 | 0.00 | 68 | 1012.5 | |
| 20260905164519 | 83 | 0.0 | 14.0 | 0.00 | 0.00 | 0.00 | 69 | 1012.7 | |
| 20260905163016 | 82 | 0.0 | 13.0 | 0.00 | 0.00 | 0.00 | 72 | 1012.9 | |
| 20260905161515 | 81 | 0.0 | 14.0 | 0.00 | 0.00 | 0.00 | 73 | 1013.2 | |
| 20260905160018 | 81 | 0.0 | 11.0 | 0.00 | 0.00 | 0.00 | 74 | 1012.9 | |
| 20260905154510 | 79 | 0.0 | 13.0 | 0.00 | 0.00 | 0.00 | 75 | 1012.9 | |
| 20260905153006 | 78 | 0.0 | 9.0 | 0.00 | 0.00 | 0.00 | 79 | 1012.7 | |
| 20260905151508 | 76 | 0.0 | 8.0 | 0.00 | 0.00 | 0.00 | 81 | 1013.0 | |
| 20260905150003 | 76 | 0.0 | 11.0 | 0.00 | 0.00 | 0.00 | 81 | 1013.3 | |
| 20260905144504 | 76 | 0.0 | 12.0 | 0.00 | 0.00 | 0.00 | 82 | 1012.9 | |
| 20260905143100 | 75 | 0.0 | 15.0 | 0.00 | 0.00 | 0.00 | 82 | 1012.7 | |
| 20260905141609 | 75 | 0.0 | 14.0 | 0.00 | 0.00 | 0.00 | 83 | 1012.6 | |
| 20260905140106 | 74 | 0.0 | 14.0 | 0.00 | 0.00 | 0.00 | 84 | 1012.6 | |
| 20260905134555 | 74 | 0.0 | 17.0 | 0.00 | 0.00 | 0.00 | 84 | 1012.3 | |
| 20260905133055 | 73 | 0.0 | 17.0 | 0.00 | 0.00 | 0.00 | 85 | 1012.1 | |
| 20260905131612 | 72 | 0.0 | 15.0 | 0.00 | 0.00 | 0.00 | 87 | 1012.3 | |
| 20260905130048 | 71 | 0.0 | 16.0 | 0.00 | 0.00 | 0.00 | 88 | 1012.4 | |
| 20260905124545 | 70 | 0.0 | 16.0 | 0.00 | 0.00 | 0.00 | 88 | 1012.4 | |
| 20260905123041 | 70 | 0.0 | 13.0 | 0.00 | 0.00 | 0.00 | 89 | 1012.7 | |
| 20260905121539 | 70 | 0.0 | 10.0 | 0.00 | 0.00 | 0.00 | 89 | 1012.8 | |
| 20260905120037 | 69 | 0.0 | 6.0 | 0.00 | 0.00 | 0.00 | 89 | 1012.8 | |
| 20260905114536 | 69 | 0.0 | 6.0 | 0.00 | 0.00 | 0.00 | 89 | 1012.7 | |
| 20260905113033 | 69 | 0.0 | 10.0 | 0.00 | 0.00 | 0.00 | 89 | 1012.5 | |
| 20260905111536 | 70 | 0.0 | 8.0 | 0.00 | 0.00 | 0.00 | 88 | 1012.4 | |
| 20260905110031 | 70 | 0.0 | 10.0 | 0.00 | 0.00 | 0.00 | 88 | 1012.3 | |
| 20260905104536 | 70 | 0.0 | 10.0 | 0.00 | 0.00 | 0.00 | 88 | 1012.3 | |
| 20260905103029 | 70 | 0.0 | 11.0 | 0.00 | 0.00 | 0.00 | 87 | 1012.4 | |
| 20260905101527 | 71 | 0.0 | 14.0 | 0.00 | 0.00 | 0.00 | 86 | 1012.5 | |
| 20260905100024 | 72 | 0.0 | 17.0 | 0.00 | 0.00 | 0.00 | 86 | 1012.5 | |
| 20260905094520 | 75 | 0.0 | 17.0 | 0.00 | 0.00 | 0.00 | 88 | 1012.5 | |
| 20260905093020 | 75 | 0.0 | 12.0 | 0.00 | 0.00 | 0.00 | 89 | 1012.2 | |
| 20260905091517 | 75 | 0.0 | 2.0 | 0.00 | 0.00 | 0.00 | 89 | 1011.5 | |
| 20260905090016 | 75 | 0.0 | 2.0 | 0.00 | 0.00 | 0.00 | 89 | 1011.3 | |
| 20260905084515 | 75 | 0.0 | 4.0 | 0.00 | 0.00 | 0.00 | 89 | 1011.3 | |
| 20260905083014 | 75 | 0.0 | 5.0 | 0.00 | 0.00 | 0.00 | 88 | 1011.5 | |
| 20260905081513 | 76 | 0.0 | 2.0 | 0.00 | 0.00 | 0.00 | 88 | 1011.3 | |
| 20260905080012 | 76 | 0.0 | 4.0 | 0.00 | 0.00 | 0.00 | 88 | 1011.2 | |
| 20260905074510 | 76 | 0.0 | 4.0 | 0.00 | 0.00 | 0.00 | 88 | 1011.2 |